Portada
METAR-TAF:

METAR-TAF

Aeroports :

Decorah Municipal Airport

Decorah, Iowa, Estats Units d'Amèrica

latitud: 43-17N, longitud: 091-44W, altitud: 353 m

Observació

L'informe es va fer fa 42 minuts, a les 18:35 UTC
Vent 18 kt del Nord-Oest amb ràfegues de 28 kt
Temperatura 13°C
Humitat 72%
Pressió 1019 hPa
Visibilitat: 16.1 km

METAR: KDEH 211835Z AUTO 32018G28KT 10SM 13/08 A3010 RMK AO2

Hora: 14:17 (19:17 UTC)


TAF: manca

Observacions i pronòstics meteorològics de més de 4000 aeroports (METAR i TAF).

Les estacions disponibles són els punts grocs i vermells al mapa.

Posi el ratolí al punt desitjat per veure el nom de l'estació.

Feu clic per veure les observacions i els pronòstics meteorològics.

Per canviar el mapa: feu clic els botons verds amb una creu de color negre per apropar; al botó verd amb un guió per allunyar la imatge; o en les fletxes verdes per a mapes adjacents.


METAR-TAF: